createdAt,value
2022-09-22T00:01:35.942Z,4.50
2022-09-22T00:04:07.122Z,4.50
2022-09-22T00:06:38.765Z,4.50
2022-09-22T00:09:10.517Z,4.50
2022-09-22T00:11:41.043Z,4.50
2022-09-22T00:14:12.188Z,4.50
2022-09-22T00:16:43.020Z,4.50
2022-09-22T00:19:12.911Z,4.50
2022-09-22T00:21:41.115Z,4.50
2022-09-22T00:24:11.240Z,4.50
2022-09-22T00:26:40.124Z,4.50
2022-09-22T00:29:09.290Z,4.50
2022-09-22T00:31:38.688Z,4.50
2022-09-22T00:34:07.569Z,4.40
2022-09-22T00:36:36.172Z,4.50
2022-09-22T00:39:04.379Z,4.50
2022-09-22T00:41:36.238Z,4.50
2022-09-22T00:44:47.572Z,4.50
2022-09-22T00:47:30.848Z,4.50
2022-09-22T00:50:06.440Z,4.50
2022-09-22T00:52:41.881Z,4.50
2022-09-22T00:55:14.651Z,4.40
2022-09-22T00:57:45.556Z,4.40
2022-09-22T01:00:14.982Z,4.40
2022-09-22T01:02:43.415Z,4.40
2022-09-22T01:05:11.903Z,4.30
2022-09-22T01:07:40.236Z,4.20
2022-09-22T01:10:11.193Z,4.20
2022-09-22T01:12:50.027Z,4.10
2022-09-22T01:15:28.653Z,4.10
2022-09-22T01:18:12.708Z,4.10
2022-09-22T01:21:08.541Z,4.10
2022-09-22T01:24:00.025Z,4.10
2022-09-22T01:27:00.013Z,4.10
2022-09-22T01:29:59.716Z,4.10
2022-09-22T01:32:32.298Z,4.10
2022-09-22T01:35:08.759Z,4.10
2022-09-22T01:37:45.649Z,4.10
2022-09-22T01:40:19.056Z,4.10
2022-09-22T01:42:50.349Z,4.10
2022-09-22T01:45:24.422Z,4.10
2022-09-22T01:47:57.986Z,4.10
2022-09-22T01:50:29.848Z,4.10
2022-09-22T01:53:01.215Z,4.10
2022-09-22T01:55:33.678Z,4.10
2022-09-22T01:58:06.271Z,4.10
2022-09-22T02:00:35.804Z,4.10
2022-09-22T02:03:11.415Z,4.10
2022-09-22T02:05:43.980Z,4.10
2022-09-22T02:08:16.937Z,4.20
2022-09-22T02:10:48.195Z,4.20
2022-09-22T02:13:16.668Z,4.20
2022-09-22T02:16:02.969Z,4.20
2022-09-22T02:18:36.961Z,4.20
2022-09-22T02:21:06.249Z,4.20
2022-09-22T02:23:35.276Z,4.20
2022-09-22T02:26:05.320Z,4.20
2022-09-22T02:28:37.772Z,4.30
2022-09-22T02:31:19.936Z,4.30
2022-09-22T02:33:50.873Z,4.30
2022-09-22T02:36:43.525Z,4.30
2022-09-22T02:39:15.569Z,4.30
2022-09-22T02:41:57.691Z,4.30
2022-09-22T02:44:30.865Z,4.30
2022-09-22T02:47:04.296Z,4.40
2022-09-22T02:49:34.892Z,4.40
2022-09-22T02:52:03.472Z,4.40
2022-09-22T02:54:33.293Z,4.30
2022-09-22T02:57:01.262Z,4.30
2022-09-22T02:59:29.366Z,4.30
2022-09-22T03:01:57.364Z,4.30
2022-09-22T03:04:25.638Z,4.30
2022-09-22T03:06:54.986Z,4.30
2022-09-22T03:09:22.977Z,4.20
2022-09-22T03:11:50.959Z,4.20
2022-09-22T03:14:18.940Z,4.20
2022-09-22T03:16:46.959Z,4.10
2022-09-22T03:19:14.896Z,4.10
2022-09-22T03:21:43.815Z,4.00
2022-09-22T03:24:13.199Z,4.00
2022-09-22T03:26:41.210Z,4.00
2022-09-22T03:29:09.173Z,3.90
2022-09-22T03:31:37.159Z,3.90
2022-09-22T03:34:06.080Z,3.80
2022-09-22T03:36:36.165Z,3.80
2022-09-22T03:39:04.461Z,3.70
2022-09-22T03:41:33.973Z,3.60
2022-09-22T03:44:02.187Z,3.60
2022-09-22T03:46:30.981Z,3.50
2022-09-22T03:48:59.066Z,3.50
2022-09-22T03:51:27.283Z,3.50
2022-09-22T03:53:55.963Z,3.40
2022-09-22T03:56:23.970Z,3.40
2022-09-22T03:58:53.321Z,3.40
2022-09-22T04:01:21.417Z,3.40
2022-09-22T04:03:51.180Z,3.30
2022-09-22T04:06:19.261Z,3.40
2022-09-22T04:08:47.321Z,3.40
2022-09-22T04:11:15.287Z,3.40
2022-09-22T04:13:46.449Z,3.40
2022-09-22T04:16:16.120Z,3.40
2022-09-22T04:18:44.303Z,3.40
2022-09-22T04:21:12.256Z,3.30
2022-09-22T04:23:40.328Z,3.30
2022-09-22T04:26:08.355Z,3.30
2022-09-22T04:28:36.731Z,3.30
2022-09-22T04:31:04.869Z,3.30
2022-09-22T04:33:34.224Z,3.40
2022-09-22T04:36:02.673Z,3.40
2022-09-22T04:38:30.681Z,3.40
2022-09-22T04:40:58.675Z,3.40
2022-09-22T04:43:26.668Z,3.50
2022-09-22T04:45:55.130Z,3.60
2022-09-22T04:48:23.122Z,3.60
2022-09-22T04:50:52.501Z,3.60
2022-09-22T04:53:20.569Z,3.70
2022-09-22T04:55:49.863Z,3.80
2022-09-22T04:58:19.906Z,3.80
2022-09-22T05:00:47.885Z,3.80
2022-09-22T05:03:21.943Z,3.90
2022-09-22T05:05:50.317Z,3.90
2022-09-22T05:08:19.654Z,3.90
2022-09-22T05:10:47.599Z,4.00
2022-09-22T05:13:15.630Z,4.00
2022-09-22T05:15:45.484Z,4.10
2022-09-22T05:18:13.457Z,4.10
2022-09-22T05:20:41.508Z,4.20
2022-09-22T05:23:09.484Z,4.20
2022-09-22T05:25:39.108Z,4.20
2022-09-22T05:28:06.912Z,4.30
2022-09-22T05:30:34.871Z,4.30
2022-09-22T05:33:02.803Z,4.40
2022-09-22T05:35:35.840Z,4.40
2022-09-22T05:38:04.821Z,4.50
2022-09-22T05:40:32.879Z,4.50
2022-09-22T05:43:02.261Z,4.50
2022-09-22T05:45:30.383Z,4.70
2022-09-22T05:47:59.041Z,4.70
2022-09-22T05:50:27.009Z,4.70
2022-09-22T05:53:04.917Z,4.80
2022-09-22T05:55:33.042Z,4.80
2022-09-22T05:58:02.616Z,4.90
2022-09-22T06:00:30.856Z,4.90
2022-09-22T06:02:59.015Z,5.00
2022-09-22T06:05:27.090Z,5.00
2022-09-22T06:08:01.461Z,5.10
2022-09-22T06:10:30.142Z,5.20
2022-09-22T06:13:03.411Z,5.30
2022-09-22T06:15:33.863Z,5.40
2022-09-22T06:18:02.155Z,5.40
2022-09-22T06:20:30.613Z,5.50
2022-09-22T06:22:59.876Z,5.70
2022-09-22T06:25:29.545Z,5.80
2022-09-22T06:28:04.738Z,5.90
2022-09-22T06:30:33.461Z,6.00
2022-09-22T06:33:01.418Z,6.10
2022-09-22T06:35:32.329Z,6.20
2022-09-22T06:38:00.361Z,6.30
2022-09-22T06:40:29.192Z,6.50
2022-09-22T06:42:59.550Z,6.60
2022-09-22T06:45:33.753Z,6.70
2022-09-22T06:48:07.583Z,6.80
2022-09-22T06:50:38.149Z,6.90
2022-09-22T06:53:08.138Z,7.00
2022-09-22T06:55:37.371Z,7.10
2022-09-22T06:58:05.378Z,7.20
2022-09-22T07:00:34.792Z,7.40
2022-09-22T07:03:05.129Z,7.50
2022-09-22T07:05:33.434Z,7.60
2022-09-22T07:08:01.923Z,7.80
2022-09-22T07:10:30.016Z,7.80
2022-09-22T07:13:01.433Z,7.90
2022-09-22T07:15:30.711Z,8.10
2022-09-22T07:18:00.039Z,8.20
2022-09-22T07:20:28.865Z,8.30
2022-09-22T07:23:00.654Z,8.40
2022-09-22T07:25:29.180Z,8.40
2022-09-22T07:27:58.045Z,8.50
2022-09-22T07:30:27.033Z,8.60
2022-09-22T07:32:55.076Z,8.70
2022-09-22T07:35:24.706Z,9.00
2022-09-22T07:37:56.758Z,9.10
2022-09-22T07:40:26.422Z,9.20
2022-09-22T07:42:55.671Z,9.40
2022-09-22T07:45:23.885Z,9.70
2022-09-22T07:48:09.602Z,10.00
2022-09-22T07:50:39.064Z,10.20
2022-09-22T07:53:06.885Z,10.40
2022-09-22T07:55:36.660Z,10.60
2022-09-22T07:58:04.779Z,10.70
2022-09-22T08:00:34.539Z,10.70
2022-09-22T08:03:04.064Z,10.60
2022-09-22T08:05:32.049Z,10.90
2022-09-22T08:08:03.657Z,11.20
2022-09-22T08:10:32.236Z,11.40
2022-09-22T08:13:01.016Z,11.60
2022-09-22T08:15:28.997Z,11.70
2022-09-22T08:17:58.305Z,11.90
2022-09-22T08:20:28.909Z,12.20
2022-09-22T08:22:58.047Z,12.30
2022-09-22T08:25:27.410Z,12.30
2022-09-22T08:27:55.374Z,12.30
2022-09-22T08:30:23.467Z,12.30
2022-09-22T08:32:51.559Z,12.40
2022-09-22T08:35:19.652Z,12.30
2022-09-22T08:37:50.349Z,12.40
2022-09-22T08:40:23.779Z,12.50
2022-09-22T08:42:55.561Z,12.60
2022-09-22T08:45:31.565Z,12.70
2022-09-22T08:48:24.484Z,12.80
2022-09-22T08:51:17.017Z,12.90
2022-09-22T08:53:48.672Z,13.00
2022-09-22T08:56:29.235Z,13.00
2022-09-22T08:59:07.596Z,13.10
2022-09-22T09:01:53.901Z,13.20
2022-09-22T09:04:56.374Z,13.30
2022-09-22T09:07:34.576Z,13.50
2022-09-22T09:10:15.480Z,13.80
2022-09-22T09:12:55.460Z,14.00
2022-09-22T09:15:38.082Z,14.40
2022-09-22T09:18:14.560Z,14.50
2022-09-22T09:20:46.265Z,14.80
2022-09-22T09:23:19.657Z,15.30
2022-09-22T09:25:50.707Z,15.80
2022-09-22T09:28:27.556Z,15.70
2022-09-22T09:31:04.658Z,15.40
2022-09-22T09:33:44.271Z,15.40
2022-09-22T09:38:54.730Z,16.60
2022-09-22T09:41:25.252Z,16.80
2022-09-22T09:43:54.345Z,16.40
2022-09-22T09:46:37.440Z,16.10
2022-09-22T09:49:11.683Z,15.90
2022-09-22T09:51:42.269Z,16.30
2022-09-22T09:54:17.087Z,16.60
2022-09-22T09:57:04.268Z,17.10
2022-09-22T09:59:50.101Z,17.30
2022-09-22T10:02:22.174Z,17.20
2022-09-22T10:04:52.994Z,17.60
2022-09-22T10:07:27.046Z,17.80
2022-09-22T10:09:56.128Z,18.30
2022-09-22T10:12:27.402Z,18.70
2022-09-22T10:14:56.838Z,18.80
2022-09-22T10:17:28.671Z,18.80
2022-09-22T10:20:22.591Z,18.50
2022-09-22T10:22:50.552Z,18.70
2022-09-22T10:25:25.020Z,19.10
2022-09-22T10:28:04.929Z,19.30
2022-09-22T10:30:37.441Z,19.30
2022-09-22T10:33:16.981Z,19.60
2022-09-22T10:35:47.438Z,19.80
2022-09-22T10:38:23.713Z,20.00
2022-09-22T10:41:07.887Z,20.20
2022-09-22T10:43:45.324Z,20.50
2022-09-22T10:46:26.358Z,20.70
2022-09-22T10:49:04.058Z,20.60
2022-09-22T10:51:56.664Z,20.80
2022-09-22T10:54:45.155Z,21.00
2022-09-22T10:57:24.803Z,21.10
2022-09-22T11:00:11.144Z,21.30
2022-09-22T11:03:01.153Z,21.70
2022-09-22T11:05:57.020Z,21.80
2022-09-22T11:08:42.607Z,21.80
2022-09-22T11:11:42.796Z,22.10
2022-09-22T11:14:22.998Z,22.10
2022-09-22T11:17:18.342Z,22.30
2022-09-22T11:19:59.201Z,22.30
2022-09-22T11:22:55.619Z,22.40
2022-09-22T11:25:50.540Z,22.30
2022-09-22T11:28:33.038Z,22.20
2022-09-22T11:31:01.265Z,22.30
2022-09-22T11:34:02.471Z,22.50
2022-09-22T11:36:40.483Z,22.70
2022-09-22T11:39:28.749Z,22.80
2022-09-22T11:42:08.093Z,23.10
2022-09-22T11:44:39.958Z,23.50
2022-09-22T11:47:44.901Z,23.60
2022-09-22T11:50:43.362Z,23.60
2022-09-22T11:53:34.843Z,24.00
2022-09-22T11:56:19.581Z,24.30
2022-09-22T11:58:50.059Z,24.60
2022-09-22T12:01:24.076Z,24.60
2022-09-22T12:03:58.377Z,24.50
2022-09-22T12:06:30.972Z,24.90
2022-09-22T12:09:03.386Z,24.80
2022-09-22T12:11:36.026Z,23.60
2022-09-22T12:14:06.400Z,22.80
2022-09-22T12:16:41.963Z,21.90
2022-09-22T12:19:22.661Z,21.90
2022-09-22T12:21:58.714Z,21.70
2022-09-22T12:24:27.484Z,21.40
2022-09-22T12:26:56.840Z,22.00
2022-09-22T12:29:29.089Z,22.80
2022-09-22T12:31:59.243Z,22.80
2022-09-22T12:34:30.329Z,22.10
2022-09-22T12:37:01.639Z,21.60
2022-09-22T12:39:32.707Z,22.20
2022-09-22T12:42:04.086Z,22.90
2022-09-22T12:44:35.766Z,23.50
2022-09-22T12:47:07.141Z,24.10
2022-09-22T12:49:35.259Z,24.60
2022-09-22T12:52:03.477Z,24.90
2022-09-22T12:54:41.319Z,25.20
2022-09-22T12:57:28.608Z,25.70
2022-09-22T13:00:12.821Z,25.90
2022-09-22T13:02:46.041Z,26.20
2022-09-22T13:05:46.734Z,25.30
2022-09-22T13:08:19.775Z,24.10
2022-09-22T13:11:06.650Z,23.50
2022-09-22T13:13:44.681Z,24.20
2022-09-22T13:16:44.818Z,24.90
2022-09-22T13:19:13.866Z,23.70
2022-09-22T13:21:42.025Z,22.80
2022-09-22T13:24:26.500Z,22.00
2022-09-22T13:27:05.196Z,21.20
2022-09-22T13:29:34.982Z,20.70
2022-09-22T13:32:26.556Z,20.30
2022-09-22T13:34:54.499Z,19.70
2022-09-22T13:37:25.150Z,19.50
2022-09-22T13:39:55.376Z,19.80
2022-09-22T13:42:32.250Z,19.80
2022-09-22T13:45:06.306Z,19.30
2022-09-22T13:47:35.708Z,18.80
2022-09-22T13:50:04.791Z,18.50
2022-09-22T13:52:36.198Z,18.20
2022-09-22T13:55:09.445Z,17.80
2022-09-22T13:57:39.032Z,17.40
2022-09-22T14:00:20.337Z,17.30
2022-09-22T14:02:48.357Z,17.00
2022-09-22T14:05:21.957Z,16.80
2022-09-22T14:08:08.202Z,16.50
2022-09-22T14:10:40.696Z,16.20
2022-09-22T14:13:39.660Z,16.00
2022-09-22T14:16:25.320Z,15.90
2022-09-22T14:18:59.252Z,15.80
2022-09-22T14:21:27.402Z,15.80
2022-09-22T14:23:57.788Z,15.70
2022-09-22T14:26:34.303Z,15.60
2022-09-22T14:29:15.095Z,15.70
2022-09-22T14:31:47.032Z,15.60
2022-09-22T14:34:21.004Z,15.50
2022-09-22T14:36:52.031Z,15.40
2022-09-22T14:39:26.925Z,15.30
2022-09-22T14:41:59.011Z,15.20
2022-09-22T14:44:44.624Z,15.00
2022-09-22T14:47:25.913Z,14.90
2022-09-22T14:50:18.767Z,14.70
2022-09-22T14:52:55.233Z,14.60
2022-09-22T14:55:34.318Z,14.60
2022-09-22T14:58:05.986Z,14.50
2022-09-22T15:00:52.216Z,14.50
2022-09-22T15:03:26.978Z,14.60
2022-09-22T15:05:56.460Z,14.60
2022-09-22T15:08:27.780Z,14.60
2022-09-22T15:10:57.501Z,14.50
2022-09-22T15:13:38.838Z,14.40
2022-09-22T15:16:07.609Z,14.30
2022-09-22T15:18:36.084Z,14.30
2022-09-22T15:21:12.572Z,14.20
2022-09-22T15:23:44.782Z,14.20
2022-09-22T15:26:19.791Z,14.10
2022-09-22T15:28:52.703Z,14.00
2022-09-22T15:31:26.571Z,13.90
2022-09-22T15:33:57.642Z,13.70
2022-09-22T15:36:26.263Z,13.50
2022-09-22T15:38:59.910Z,13.40
2022-09-22T15:41:28.149Z,13.20
2022-09-22T15:43:56.394Z,13.00
2022-09-22T15:46:33.560Z,13.00
2022-09-22T15:49:08.678Z,12.90
2022-09-22T15:51:36.886Z,12.80
2022-09-22T15:54:07.315Z,12.70
2022-09-22T15:56:35.343Z,12.60
2022-09-22T15:59:05.085Z,12.50
2022-09-22T16:01:33.026Z,12.40
2022-09-22T16:04:02.801Z,12.30
2022-09-22T16:06:30.808Z,12.20
2022-09-22T16:08:58.801Z,12.10
2022-09-22T16:11:29.736Z,12.00
2022-09-22T16:14:00.550Z,12.00
2022-09-22T16:16:29.411Z,11.90
2022-09-22T16:18:58.093Z,11.90
2022-09-22T16:21:29.509Z,11.80
2022-09-22T16:24:02.885Z,11.70
2022-09-22T16:26:33.389Z,11.70
2022-09-22T16:29:01.947Z,11.60
2022-09-22T16:31:30.110Z,11.60
2022-09-22T16:34:00.392Z,11.50
2022-09-22T16:36:32.858Z,11.40
2022-09-22T16:39:01.885Z,11.30
2022-09-22T16:41:31.956Z,11.20
2022-09-22T16:44:01.013Z,11.10
2022-09-22T16:46:31.476Z,11.00
2022-09-22T16:49:04.066Z,10.90
2022-09-22T16:51:35.436Z,10.80
2022-09-22T16:54:03.604Z,10.70
2022-09-22T16:56:34.016Z,10.60
2022-09-22T16:59:03.068Z,10.40
2022-09-22T17:01:32.178Z,10.30
2022-09-22T17:04:00.190Z,10.20
2022-09-22T17:06:29.407Z,10.10
2022-09-22T17:09:00.160Z,10.00
2022-09-22T17:11:30.343Z,9.90
2022-09-22T17:14:02.958Z,9.80
2022-09-22T17:16:33.980Z,9.70
2022-09-22T17:19:04.017Z,9.60
2022-09-22T17:21:34.489Z,9.50
2022-09-22T17:24:05.860Z,9.40
2022-09-22T17:26:37.085Z,9.40
2022-09-22T17:29:06.346Z,9.30
2022-09-22T17:31:35.978Z,9.20
2022-09-22T17:34:05.511Z,9.10
2022-09-22T17:36:34.836Z,9.10
2022-09-22T17:39:04.731Z,9.00
2022-09-22T17:41:34.528Z,8.90
2022-09-22T17:44:03.511Z,8.80
2022-09-22T17:46:32.913Z,8.80
2022-09-22T17:49:19.011Z,8.70
2022-09-22T17:52:05.566Z,8.80
2022-09-22T17:54:53.917Z,8.70
2022-09-22T17:57:23.635Z,8.60
2022-09-22T17:59:52.255Z,8.60
2022-09-22T18:02:21.645Z,8.50
2022-09-22T18:04:49.704Z,8.40
2022-09-22T18:07:20.244Z,8.40
2022-09-22T18:09:51.842Z,8.30
2022-09-22T18:12:21.754Z,8.20
2022-09-22T18:14:52.077Z,8.20
2022-09-22T18:17:23.222Z,8.10
2022-09-22T18:19:54.162Z,8.00
2022-09-22T18:22:22.694Z,8.00
2022-09-22T18:24:55.113Z,7.90
2022-09-22T18:27:25.496Z,7.80
2022-09-22T18:29:58.258Z,7.70
2022-09-22T18:32:26.889Z,7.70
2022-09-22T18:34:55.210Z,7.60
2022-09-22T18:37:24.581Z,7.50
2022-09-22T18:39:54.224Z,7.50
2022-09-22T18:42:24.154Z,7.40
2022-09-22T18:44:52.371Z,7.40
2022-09-22T18:47:23.023Z,7.30
2022-09-22T18:49:51.668Z,7.30
2022-09-22T18:52:22.900Z,7.20
2022-09-22T18:54:54.851Z,7.20
2022-09-22T18:57:25.478Z,7.10
2022-09-22T18:59:57.599Z,7.00
2022-09-22T19:02:27.570Z,7.00
2022-09-22T19:04:55.856Z,6.90
2022-09-22T19:07:42.562Z,6.90
2022-09-22T19:10:14.695Z,6.90
2022-09-22T19:12:44.713Z,6.90
2022-09-22T19:15:15.376Z,6.90
2022-09-22T19:17:46.352Z,6.90
2022-09-22T19:20:17.155Z,6.90
2022-09-22T19:22:45.886Z,6.90
2022-09-22T19:25:17.144Z,6.80
2022-09-22T19:27:45.144Z,6.80
2022-09-22T19:30:14.790Z,6.70
2022-09-22T19:32:43.104Z,6.70
2022-09-22T19:35:11.197Z,6.70
2022-09-22T19:37:40.725Z,6.60
2022-09-22T19:40:10.843Z,6.60
2022-09-22T19:42:40.671Z,6.50
2022-09-22T19:45:09.408Z,6.50
2022-09-22T19:47:37.627Z,6.40
2022-09-22T19:50:07.980Z,6.30
2022-09-22T19:52:36.336Z,6.30
2022-09-22T19:55:04.490Z,6.30
2022-09-22T19:57:33.728Z,6.20
2022-09-22T20:00:04.752Z,6.20
2022-09-22T20:02:32.790Z,6.10
2022-09-22T20:05:00.820Z,6.10
2022-09-22T20:07:29.083Z,6.00
2022-09-22T20:09:57.267Z,6.00
2022-09-22T20:12:26.356Z,6.00
2022-09-22T20:14:54.560Z,6.00
2022-09-22T20:17:24.065Z,5.90
2022-09-22T20:19:51.873Z,5.90
2022-09-22T20:22:25.043Z,5.90
2022-09-22T20:24:55.628Z,5.90
2022-09-22T20:27:27.823Z,5.80
2022-09-22T20:29:57.531Z,5.80
2022-09-22T20:32:28.756Z,5.80
2022-09-22T20:34:57.570Z,5.70
2022-09-22T20:37:26.087Z,5.70
2022-09-22T20:39:54.176Z,5.70
2022-09-22T20:42:23.192Z,5.60
2022-09-22T20:44:51.562Z,5.60
2022-09-22T20:47:21.108Z,5.60
2022-09-22T20:49:51.954Z,5.60
2022-09-22T20:52:21.126Z,5.60
2022-09-22T20:54:49.685Z,5.50
2022-09-22T20:57:18.137Z,5.50
2022-09-22T20:59:47.441Z,5.50
2022-09-22T21:02:16.869Z,5.40
2022-09-22T21:04:44.965Z,5.30
2022-09-22T21:07:14.265Z,5.30
2022-09-22T21:09:59.615Z,5.20
2022-09-22T21:12:31.296Z,5.20
2022-09-22T21:14:59.669Z,5.10
2022-09-22T21:17:29.607Z,5.10
2022-09-22T21:19:58.097Z,5.10
2022-09-22T21:22:28.261Z,5.10
2022-09-22T21:24:56.413Z,5.00
2022-09-22T21:27:24.635Z,5.10
2022-09-22T21:29:53.148Z,5.00
2022-09-22T21:32:21.257Z,5.00
2022-09-22T21:34:49.272Z,5.00
2022-09-22T21:37:17.192Z,4.90
2022-09-22T21:39:46.604Z,4.90
2022-09-22T21:42:14.572Z,4.90
2022-09-22T21:44:42.583Z,4.90
2022-09-22T21:47:11.418Z,4.80
2022-09-22T21:49:39.403Z,4.70
2022-09-22T21:52:07.381Z,4.70
2022-09-22T21:54:35.522Z,4.70
2022-09-22T21:57:04.920Z,4.60
2022-09-22T21:59:32.895Z,4.60
2022-09-22T22:02:01.055Z,4.60
2022-09-22T22:04:29.110Z,4.50
2022-09-22T22:06:57.063Z,4.50
2022-09-22T22:09:25.638Z,4.50
2022-09-22T22:11:56.308Z,4.50
2022-09-22T22:14:28.023Z,4.50
2022-09-22T22:16:56.493Z,4.40
2022-09-22T22:19:26.804Z,4.40
2022-09-22T22:21:55.603Z,4.40
2022-09-22T22:24:36.490Z,4.30
2022-09-22T22:27:06.796Z,4.30
2022-09-22T22:29:36.943Z,4.30
2022-09-22T22:32:06.172Z,4.20
2022-09-22T22:34:34.542Z,4.20
2022-09-22T22:37:03.903Z,4.10
2022-09-22T22:39:32.524Z,4.10
2022-09-22T22:42:00.476Z,4.10
2022-09-22T22:44:28.946Z,4.10
2022-09-22T22:46:58.422Z,4.10
2022-09-22T22:49:28.149Z,4.00
2022-09-22T22:51:56.134Z,4.00
2022-09-22T22:54:24.156Z,3.90
2022-09-22T22:56:52.134Z,3.90
2022-09-22T22:59:20.474Z,3.90
2022-09-22T23:01:48.455Z,3.90
2022-09-22T23:04:17.852Z,3.90
2022-09-22T23:06:48.417Z,3.90
2022-09-22T23:09:17.939Z,3.90
2022-09-22T23:11:47.514Z,3.80
2022-09-22T23:14:16.128Z,3.90
2022-09-22T23:16:46.023Z,3.80
2022-09-22T23:19:17.932Z,3.80
2022-09-22T23:21:46.831Z,3.80
2022-09-22T23:24:16.885Z,3.70
2022-09-22T23:26:47.661Z,3.70
2022-09-22T23:29:15.729Z,3.70
2022-09-22T23:31:43.778Z,3.60
2022-09-22T23:34:11.763Z,3.70
2022-09-22T23:36:41.097Z,3.60
2022-09-22T23:39:09.048Z,3.60
2022-09-22T23:41:38.213Z,3.60
2022-09-22T23:44:07.327Z,3.50
2022-09-22T23:46:36.300Z,3.50
2022-09-22T23:49:04.278Z,3.50
2022-09-22T23:51:32.697Z,3.50
2022-09-22T23:54:02.450Z,3.40
2022-09-22T23:56:30.523Z,3.40
2022-09-22T23:58:58.473Z,3.40
